Time;durP1;ratioP1;P1;durP2;ratioP2;P2;SDS_P1;SDS_P2;PMS_P1;PMS_P2;Temp;Humidity;BMP_temperature;BMP_pressure;BME280_temperature;BME280_humidity;BME280_pressure;Samples;Min_cycle;Max_cycle;Signal;HPM_P1;HPM_P2
2023/09/13 00:02:40;;;;;;;15.67;11.23;;;;;20.70;100662.00;;;;4918960;29;20863;-73
2023/09/13 00:05:28;;;;;;;18.13;11.90;;;;;20.70;100658.00;;;;4923927;29;20825;-75
2023/09/13 00:08:14;;;;;;;18.17;11.20;;;;;20.70;100655.00;;;;4920722;29;20241;-75
2023/09/13 00:11:04;;;;;;;20.33;11.90;;;;;20.70;100652.00;;;;4916544;29;20311;-74
2023/09/13 00:13:50;;;;;;;22.50;13.80;;;;;20.70;100657.00;;;;4924358;29;20250;-73
2023/09/13 00:16:37;;;;;;;18.43;12.87;;;;;20.70;100658.00;;;;4923900;29;20316;-75
2023/09/13 00:19:23;;;;;;;24.80;12.37;;;;;20.70;100663.00;;;;4916925;28;20247;-76
2023/09/13 00:22:12;;;;;;;17.40;11.57;;;;;20.70;100669.00;;;;4909866;29;20244;-74
2023/09/13 00:24:59;;;;;;;18.00;11.23;;;;;20.70;100671.00;;;;4911517;28;20244;-74
2023/09/13 00:27:45;;;;;;;22.20;11.37;;;;;20.70;100673.00;;;;4918798;29;20626;-74
2023/09/13 00:30:31;;;;;;;15.23;10.53;;;;;20.70;100681.00;;;;4914583;29;20232;-74
2023/09/13 00:33:17;;;;;;;18.63;11.80;;;;;20.70;100681.00;;;;4921148;29;20239;-75
2023/09/13 00:36:04;;;;;;;22.07;13.00;;;;;20.70;100682.00;;;;4925391;29;20362;-75
2023/09/13 00:38:52;;;;;;;21.60;13.50;;;;;20.80;100687.00;;;;4920471;29;20295;-74
2023/09/13 00:41:38;;;;;;;24.83;14.60;;;;;20.80;100676.00;;;;4925004;29;20249;-74
2023/09/13 00:44:24;;;;;;;28.57;17.03;;;;;20.80;100681.00;;;;4930581;29;20358;-75
2023/09/13 00:47:12;;;;;;;25.60;16.73;;;;;20.80;100690.00;;;;4914615;28;20242;-75
2023/09/13 00:49:59;;;;;;;29.33;18.97;;;;;20.90;100678.00;;;;4927431;28;20730;-75
2023/09/13 00:52:47;;;;;;;31.90;19.40;;;;;20.90;100693.00;;;;4923459;29;20738;-74
2023/09/13 00:55:35;;;;;;;24.93;16.20;;;;;20.80;100703.00;;;;4917986;28;20242;-74
2023/09/13 00:58:21;;;;;;;27.20;16.90;;;;;20.80;100686.00;;;;4925015;29;20251;-74
2023/09/13 01:01:09;;;;;;;23.67;15.63;;;;;20.90;100697.00;;;;4927524;29;20254;-74
2023/09/13 01:03:57;;;;;;;31.87;18.33;;;;;20.90;100693.00;;;;4927616;28;20243;-74
2023/09/13 01:06:44;;;;;;;27.37;15.77;;;;;20.90;100697.00;;;;4927011;29;20852;-75
2023/09/13 01:09:30;;;;;;;28.03;18.13;;;;;20.80;100699.00;;;;4927467;29;21044;-74
2023/09/13 01:12:17;;;;;;;25.83;17.00;;;;;20.80;100698.00;;;;4919482;29;20263;-73
2023/09/13 01:15:06;;;;;;;31.43;18.67;;;;;20.90;100692.00;;;;4929448;29;20239;-75
2023/09/13 01:17:58;;;;;;;30.87;19.73;;;;;20.90;100690.00;;;;4920902;29;20846;-74
2023/09/13 01:21:06;;;;;;;29.73;19.20;;;;;20.90;100693.00;;;;4919246;28;20728;-74
2023/09/13 01:24:07;;;;;;;31.73;17.97;;;;;20.90;100686.00;;;;4920132;29;20247;-75
2023/09/13 01:27:17;;;;;;;40.27;23.17;;;;;20.90;100688.00;;;;4918831;29;20241;-74
2023/09/13 01:30:08;;;;;;;34.83;20.63;;;;;20.80;100700.00;;;;4913548;29;20247;-73
2023/09/13 01:32:55;;;;;;;36.33;21.47;;;;;20.80;100707.00;;;;4929517;29;20713;-74
2023/09/13 01:35:42;;;;;;;37.50;21.67;;;;;20.80;100692.00;;;;4919875;29;20316;-74
2023/09/13 01:38:29;;;;;;;34.27;21.10;;;;;20.80;100699.00;;;;4917912;29;20444;-74
2023/09/13 01:41:21;;;;;;;40.77;24.70;;;;;20.90;100706.00;;;;4926696;29;20234;-73
2023/09/13 01:44:08;;;;;;;35.50;22.10;;;;;20.80;100700.00;;;;4922791;29;20738;-73
2023/09/13 01:46:57;;;;;;;36.27;21.83;;;;;20.80;100700.00;;;;4922578;29;20297;-73
2023/09/13 01:49:44;;;;;;;41.20;23.63;;;;;20.80;100704.00;;;;4913612;29;20239;-73
2023/09/13 01:52:30;;;;;;;39.10;22.60;;;;;20.80;100706.00;;;;4921502;29;20267;-73
2023/09/13 01:55:17;;;;;;;39.87;22.10;;;;;20.80;100699.00;;;;4921236;28;20718;-75
2023/09/13 01:58:03;;;;;;;34.50;21.43;;;;;20.80;100707.00;;;;4917901;29;20279;-73
2023/09/13 02:00:50;;;;;;;38.77;21.37;;;;;20.80;100713.00;;;;4925462;29;20746;-75
2023/09/13 02:03:37;;;;;;;36.23;21.10;;;;;20.80;100719.00;;;;4928983;29;20372;-74
2023/09/13 02:06:24;;;;;;;38.50;21.77;;;;;20.80;100735.00;;;;4928091;29;20258;-73
2023/09/13 02:09:10;;;;;;;38.40;22.03;;;;;20.70;100727.00;;;;4914723;29;20240;-73
2023/09/13 02:11:57;;;;;;;33.90;21.27;;;;;20.70;100730.00;;;;4921141;29;20248;-73
2023/09/13 02:14:43;;;;;;;34.23;21.30;;;;;20.70;100728.00;;;;4929093;29;20273;-73
2023/09/13 02:17:32;;;;;;;29.50;19.53;;;;;20.70;100725.00;;;;4925888;29;20725;-73
2023/09/13 02:20:19;;;;;;;32.97;19.40;;;;;20.70;100721.00;;;;4928501;29;20231;-73
2023/09/13 02:23:06;;;;;;;28.00;18.67;;;;;20.60;100730.00;;;;4918631;28;20728;-73
2023/09/13 02:25:52;;;;;;;32.30;19.73;;;;;20.60;100735.00;;;;4918425;29;20391;-74
2023/09/13 02:28:39;;;;;;;31.67;19.20;;;;;20.60;100733.00;;;;4918872;29;20748;-74
2023/09/13 02:31:26;;;;;;;30.97;18.33;;;;;20.60;100730.00;;;;4921683;29;20783;-73
2023/09/13 02:34:13;;;;;;;27.50;17.30;;;;;20.50;100739.00;;;;4926174;29;20237;-74
2023/09/13 02:37:00;;;;;;;27.17;16.70;;;;;20.50;100738.00;;;;4919929;28;20239;-74
2023/09/13 02:39:47;;;;;;;26.53;17.63;;;;;20.50;100744.00;;;;4922309;28;20948;-74
2023/09/13 02:42:33;;;;;;;22.50;14.73;;;;;20.50;100745.00;;;;4912503;29;20331;-73
2023/09/13 02:45:20;;;;;;;24.60;14.77;;;;;20.50;100739.00;;;;4914566;29;20618;-73
2023/09/13 02:48:07;;;;;;;24.27;15.00;;;;;20.40;100744.00;;;;4917661;29;20819;-72
2023/09/13 02:50:53;;;;;;;22.87;14.37;;;;;20.40;100749.00;;;;4917614;28;20346;-73
2023/09/13 02:53:41;;;;;;;22.03;14.07;;;;;20.40;100739.00;;;;4915769;29;20798;-72
2023/09/13 02:56:28;;;;;;;22.73;14.17;;;;;20.40;100740.00;;;;4920016;29;20246;-74
2023/09/13 02:59:14;;;;;;;18.90;13.67;;;;;20.30;100736.00;;;;4920526;29;20355;-73
2023/09/13 03:02:00;;;;;;;19.83;13.83;;;;;20.40;100736.00;;;;4926178;29;20252;-73
2023/09/13 03:04:50;;;;;;;18.77;12.23;;;;;20.30;100740.00;;;;4920255;29;20249;-71
2023/09/13 03:07:36;;;;;;;22.73;13.00;;;;;20.30;100746.00;;;;4910211;29;20304;-73
2023/09/13 03:10:26;;;;;;;23.70;13.17;;;;;20.20;100742.00;;;;4915088;29;20260;-74
2023/09/13 03:13:13;;;;;;;20.20;12.23;;;;;20.20;100740.00;;;;4913538;29;20752;-74
2023/09/13 03:15:59;;;;;;;20.77;12.80;;;;;20.20;100754.00;;;;4913243;28;20235;-73
2023/09/13 03:18:46;;;;;;;22.90;13.70;;;;;20.20;100753.00;;;;4915586;29;20720;-74
2023/09/13 03:21:33;;;;;;;18.33;12.57;;;;;20.20;100756.00;;;;4916185;29;20233;-74
2023/09/13 03:24:19;;;;;;;21.97;12.47;;;;;20.20;100747.00;;;;4927041;29;20666;-71
2023/09/13 03:27:08;;;;;;;24.23;12.80;;;;;20.20;100754.00;;;;4916803;29;20226;-73
2023/09/13 03:29:54;;;;;;;23.30;12.60;;;;;20.20;100749.00;;;;4921209;29;20361;-73
2023/09/13 03:32:40;;;;;;;20.07;11.97;;;;;20.20;100754.00;;;;4923683;29;20248;-73
2023/09/13 03:35:27;;;;;;;24.70;11.93;;;;;20.20;100747.00;;;;4922578;28;20294;-73
2023/09/13 03:38:13;;;;;;;20.73;12.83;;;;;20.20;100752.00;;;;4925389;29;20238;-72
2023/09/13 03:41:01;;;;;;;20.60;12.83;;;;;20.10;100747.00;;;;4919865;29;20235;-73
2023/09/13 03:43:50;;;;;;;15.87;11.17;;;;;20.10;100748.00;;;;4924636;29;20312;-71
2023/09/13 03:46:36;;;;;;;24.87;12.97;;;;;20.10;100749.00;;;;4913666;29;20375;-72
2023/09/13 03:49:22;;;;;;;21.87;12.33;;;;;20.10;100746.00;;;;4926288;28;20226;-75
2023/09/13 03:52:09;;;;;;;19.47;12.47;;;;;20.10;100757.00;;;;4928827;29;20318;-73
2023/09/13 03:54:56;;;;;;;21.60;12.63;;;;;20.10;100758.00;;;;4916347;29;20259;-73
2023/09/13 03:57:42;;;;;;;22.20;12.67;;;;;20.10;100749.00;;;;4902927;29;20229;-74
2023/09/13 04:00:29;;;;;;;19.20;12.37;;;;;20.10;100749.00;;;;4912841;28;20351;-74
2023/09/13 04:03:16;;;;;;;21.60;13.23;;;;;20.10;100751.00;;;;4917493;29;20259;-72
2023/09/13 04:06:03;;;;;;;20.83;12.07;;;;;20.00;100755.00;;;;4923568;29;20244;-75
2023/09/13 04:08:49;;;;;;;18.83;12.47;;;;;20.00;100751.00;;;;4923019;29;20369;-75
2023/09/13 04:11:36;;;;;;;19.47;11.67;;;;;20.00;100755.00;;;;4912011;29;20297;-74
2023/09/13 04:14:22;;;;;;;17.70;11.67;;;;;20.10;100748.00;;;;4925328;29;20224;-73
2023/09/13 04:17:09;;;;;;;18.97;11.80;;;;;20.10;100747.00;;;;4921688;29;20238;-74
2023/09/13 04:19:56;;;;;;;20.37;12.03;;;;;20.10;100744.00;;;;4929585;29;20313;-72
2023/09/13 04:22:42;;;;;;;21.50;12.97;;;;;20.10;100751.00;;;;4925108;28;20258;-74
2023/09/13 04:25:28;;;;;;;20.07;13.13;;;;;20.10;100753.00;;;;4928492;28;20314;-74
2023/09/13 04:28:15;;;;;;;23.27;12.23;;;;;20.10;100752.00;;;;4926047;29;20279;-75
2023/09/13 04:31:01;;;;;;;21.07;12.80;;;;;20.10;100747.00;;;;4925752;28;20260;-74
2023/09/13 04:33:51;;;;;;;18.90;12.43;;;;;20.10;100751.00;;;;4923169;28;20237;-74
2023/09/13 04:36:37;;;;;;;19.50;12.30;;;;;20.10;100747.00;;;;4923219;29;20243;-74
2023/09/13 04:39:24;;;;;;;24.27;11.97;;;;;20.10;100750.00;;;;4920772;29;20249;-74
2023/09/13 04:42:11;;;;;;;16.30;11.10;;;;;20.10;100751.00;;;;4925131;29;20310;-73
2023/09/13 04:44:57;;;;;;;20.87;12.93;;;;;20.10;100751.00;;;;4922797;29;20613;-72
2023/09/13 04:47:44;;;;;;;23.67;13.00;;;;;20.10;100753.00;;;;4925694;29;20242;-74
2023/09/13 04:50:32;;;;;;;21.80;13.93;;;;;20.10;100755.00;;;;4933158;29;20230;-74
2023/09/13 04:53:18;;;;;;;22.00;12.80;;;;;20.10;100750.00;;;;4921581;29;20246;-72
2023/09/13 04:56:04;;;;;;;22.47;12.50;;;;;20.10;100744.00;;;;4924470;29;20238;-74
2023/09/13 04:58:51;;;;;;;28.67;15.37;;;;;20.10;100749.00;;;;4925921;29;20724;-74
2023/09/13 05:01:37;;;;;;;23.20;14.53;;;;;20.10;100752.00;;;;4929691;29;20241;-72
2023/09/13 05:04:23;;;;;;;25.30;14.53;;;;;20.10;100753.00;;;;4927258;29;20236;-73
2023/09/13 05:07:11;;;;;;;25.10;15.50;;;;;20.10;100755.00;;;;4929471;29;20250;-73
2023/09/13 05:09:58;;;;;;;26.93;15.00;;;;;20.10;100745.00;;;;4925710;29;20612;-73
2023/09/13 05:12:44;;;;;;;30.40;17.43;;;;;20.10;100756.00;;;;4918867;29;20267;-73
2023/09/13 05:15:30;;;;;;;26.97;15.70;;;;;20.10;100763.00;;;;4931915;28;20232;-74
2023/09/13 05:18:16;;;;;;;25.60;14.33;;;;;20.10;100769.00;;;;4917578;29;20738;-74
2023/09/13 05:21:02;;;;;;;26.50;15.47;;;;;20.10;100774.00;;;;4920283;29;20253;-73
2023/09/13 05:23:50;;;;;;;25.37;14.73;;;;;20.10;100772.00;;;;4920305;29;20294;-73
2023/09/13 05:26:36;;;;;;;28.27;15.70;;;;;20.10;100789.00;;;;4924090;29;20738;-73
2023/09/13 05:29:23;;;;;;;26.37;15.47;;;;;20.10;100772.00;;;;4921617;29;20359;-74
2023/09/13 05:32:10;;;;;;;27.17;15.60;;;;;20.10;100786.00;;;;4919005;29;20243;-72
2023/09/13 05:34:56;;;;;;;25.37;15.10;;;;;20.10;100783.00;;;;4919371;29;20236;-73
2023/09/13 05:37:43;;;;;;;24.10;14.57;;;;;20.10;100795.00;;;;4929307;29;20241;-72
2023/09/13 05:40:31;;;;;;;24.70;14.87;;;;;20.10;100790.00;;;;4926439;29;20223;-73
2023/09/13 05:43:17;;;;;;;27.80;14.43;;;;;20.10;100795.00;;;;4922615;29;20243;-75
2023/09/13 05:46:04;;;;;;;21.90;13.40;;;;;20.10;100795.00;;;;4922953;29;20292;-74
2023/09/13 05:48:51;;;;;;;23.90;13.50;;;;;20.10;100804.00;;;;4917512;29;20811;-73
2023/09/13 05:51:37;;;;;;;25.73;13.97;;;;;20.10;100804.00;;;;4920825;29;20249;-72
2023/09/13 05:54:23;;;;;;;22.73;13.50;;;;;20.10;100802.00;;;;4922773;29;20228;-74
2023/09/13 05:57:11;;;;;;;21.20;12.97;;;;;20.20;100810.00;;;;4917096;29;20237;-75
2023/09/13 05:59:57;;;;;;;20.47;12.33;;;;;20.10;100814.00;;;;4924293;29;20950;-75
2023/09/13 06:02:44;;;;;;;20.20;12.50;;;;;20.10;100817.00;;;;4913429;29;20256;-75
2023/09/13 06:05:31;;;;;;;18.90;12.37;;;;;20.10;100818.00;;;;4927113;29;20254;-73
2023/09/13 06:08:17;;;;;;;21.47;13.03;;;;;20.10;100822.00;;;;4914049;29;20241;-76
2023/09/13 06:11:04;;;;;;;21.50;12.17;;;;;20.20;100819.00;;;;4926305;29;20237;-74
2023/09/13 06:13:52;;;;;;;21.47;12.50;;;;;20.20;100813.00;;;;4922478;29;20724;-75
2023/09/13 06:16:39;;;;;;;20.50;12.90;;;;;20.30;100817.00;;;;4919703;29;20316;-75
2023/09/13 06:19:25;;;;;;;21.70;12.73;;;;;20.30;100821.00;;;;4914993;29;20390;-74
2023/09/13 06:22:14;;;;;;;21.17;12.43;;;;;20.40;100818.00;;;;4919092;29;20367;-74
2023/09/13 06:25:01;;;;;;;19.73;11.87;;;;;20.40;100828.00;;;;4920450;29;20245;-72
2023/09/13 06:27:53;;;;;;;23.63;12.93;;;;;20.40;100824.00;;;;4915716;29;20274;-74
2023/09/13 06:30:41;;;;;;;27.20;15.23;;;;;20.40;100831.00;;;;4922228;29;20233;-70
2023/09/13 06:33:46;;;;;;;29.43;15.10;;;;;20.50;100831.00;;;;4912160;29;20247;-71
2023/09/13 06:36:33;;;;;;;27.63;15.40;;;;;20.50;100843.00;;;;4922109;29;21007;-72
2023/09/13 06:39:20;;;;;;;26.80;16.20;;;;;20.60;100838.00;;;;4919582;29;21056;-71
2023/09/13 06:42:06;;;;;;;30.40;15.90;;;;;20.60;100833.00;;;;4917557;29;20722;-71
2023/09/13 06:45:13;;;;;;;32.93;17.80;;;;;20.60;100830.00;;;;4920763;29;20253;-70
2023/09/13 06:48:16;;;;;;;31.90;16.90;;;;;20.50;100837.00;;;;4927281;29;20246;-71
2023/09/13 06:51:03;;;;;;;32.53;17.60;;;;;20.50;100844.00;;;;4926418;29;20268;-71
2023/09/13 06:53:52;;;;;;;30.40;17.20;;;;;20.60;100844.00;;;;4922254;29;20237;-70
2023/09/13 06:56:41;;;;;;;34.20;18.33;;;;;20.70;100852.00;;;;4920715;28;20241;-69
2023/09/13 06:59:30;;;;;;;41.30;18.60;;;;;20.70;100849.00;;;;4916262;29;20234;-71
2023/09/13 07:02:30;;;;;;;41.93;19.73;;;;;20.70;100855.00;;;;4923327;28;20326;-71
2023/09/13 07:05:23;;;;;;;40.03;20.43;;;;;20.70;100860.00;;;;4924863;28;20322;-72
2023/09/13 07:08:13;;;;;;;39.43;19.77;;;;;20.70;100858.00;;;;4919198;28;20352;-75
2023/09/13 07:11:01;;;;;;;43.40;21.03;;;;;20.70;100855.00;;;;4924986;28;20235;-73
2023/09/13 07:13:48;;;;;;;48.53;23.13;;;;;20.70;100869.00;;;;4919221;28;20347;-69
2023/09/13 07:16:34;;;;;;;48.63;24.27;;;;;20.80;100874.00;;;;4921871;29;20368;-74
2023/09/13 07:19:20;;;;;;;47.53;24.63;;;;;20.80;100865.00;;;;4926791;29;20301;-71
2023/09/13 07:22:08;;;;;;;50.27;25.30;;;;;20.80;100873.00;;;;4924155;28;20248;-70
2023/09/13 07:24:54;;;;;;;52.90;25.13;;;;;20.80;100883.00;;;;4923871;29;20371;-74
2023/09/13 07:27:40;;;;;;;49.07;25.23;;;;;20.80;100884.00;;;;4922151;29;20262;-69
2023/09/13 07:30:27;;;;;;;48.53;25.30;;;;;20.80;100887.00;;;;4920948;29;20242;-74
2023/09/13 07:33:14;;;;;;;46.60;24.93;;;;;20.70;100888.00;;;;4924919;29;20250;-70
2023/09/13 07:36:00;;;;;;;46.70;24.77;;;;;20.70;100899.00;;;;4919504;29;20314;-72
2023/09/13 07:38:48;;;;;;;49.37;25.43;;;;;20.60;100899.00;;;;4922802;29;20231;-73
2023/09/13 07:41:34;;;;;;;56.83;26.93;;;;;20.60;100905.00;;;;4923478;29;20730;-75
2023/09/13 07:44:21;;;;;;;53.83;26.27;;;;;20.60;100900.00;;;;4919645;28;20230;-74
2023/09/13 07:47:07;;;;;;;52.20;25.37;;;;;20.60;100904.00;;;;4921061;29;20363;-74
2023/09/13 07:49:53;;;;;;;54.30;25.57;;;;;20.50;100905.00;;;;4926998;29;20783;-73
2023/09/13 07:52:39;;;;;;;52.80;25.63;;;;;20.60;100916.00;;;;4918789;29;20817;-73
2023/09/13 07:55:47;;;;;;;56.80;25.67;;;;;20.60;100927.00;;;;4924777;29;20289;-73
2023/09/13 07:58:33;;;;;;;54.63;26.53;;;;;20.50;100923.00;;;;4922529;28;20240;-74
2023/09/13 08:01:20;;;;;;;51.27;26.07;;;;;20.50;100928.00;;;;4917598;28;21129;-75
2023/09/13 08:04:06;;;;;;;55.67;25.60;;;;;20.50;100932.00;;;;4921100;29;20385;-77
2023/09/13 08:06:52;;;;;;;51.47;25.67;;;;;20.60;100933.00;;;;4919000;29;20286;-76
2023/09/13 08:09:39;;;;;;;51.50;25.20;;;;;20.60;100939.00;;;;4921201;29;20750;-75
2023/09/13 08:12:26;;;;;;;54.50;25.63;;;;;20.70;100940.00;;;;4918327;29;20238;-75
2023/09/13 08:15:13;;;;;;;55.67;25.27;;;;;20.60;100934.00;;;;4917042;29;20243;-74
2023/09/13 08:17:59;;;;;;;52.90;25.03;;;;;20.70;100939.00;;;;4922619;29;20643;-75
2023/09/13 08:20:46;;;;;;;55.07;25.87;;;;;20.90;100939.00;;;;4921361;29;20289;-75
2023/09/13 08:23:32;;;;;;;51.20;24.03;;;;;21.10;100948.00;;;;4925084;29;20258;-74
2023/09/13 08:26:19;;;;;;;54.23;24.57;;;;;21.20;100954.00;;;;4920170;29;20368;-75
2023/09/13 08:29:15;;;;;;;54.00;24.03;;;;;21.40;100944.00;;;;4920305;29;20389;-75
2023/09/13 08:32:02;;;;;;;45.47;23.17;;;;;21.50;100960.00;;;;4923831;28;20356;-75
2023/09/13 08:34:48;;;;;;;45.93;22.67;;;;;21.60;100958.00;;;;4923573;29;20227;-79
2023/09/13 08:37:35;;;;;;;45.13;22.73;;;;;21.80;100951.00;;;;4922218;29;20256;-74
2023/09/13 08:40:24;;;;;;;43.40;22.60;;;;;21.80;100963.00;;;;4917265;28;20240;-77
2023/09/13 08:43:12;;;;;;;46.87;21.77;;;;;21.90;100970.00;;;;4921226;29;20305;-75
2023/09/13 08:46:02;;;;;;;40.13;20.87;;;;;21.80;100975.00;;;;4919266;28;20770;-74
2023/09/13 08:48:50;;;;;;;40.77;20.27;;;;;21.80;100973.00;;;;4921556;28;20243;-74
2023/09/13 08:51:37;;;;;;;37.97;20.40;;;;;21.90;100973.00;;;;4922392;29;20352;-75
2023/09/13 08:54:24;;;;;;;36.67;20.10;;;;;22.10;100957.00;;;;4926005;28;20225;-75
2023/09/13 08:57:11;;;;;;;34.63;18.90;;;;;22.20;100980.00;;;;4921665;29;20311;-73
2023/09/13 08:59:57;;;;;;;33.13;18.10;;;;;22.30;100982.00;;;;4928749;29;20253;-73
2023/09/13 09:02:49;;;;;;;34.17;17.87;;;;;22.10;100977.00;;;;4928054;29;20237;-76
2023/09/13 09:05:38;;;;;;;31.03;17.60;;;;;22.00;100977.00;;;;4928624;29;20233;-73
2023/09/13 09:08:25;;;;;;;30.83;17.60;;;;;21.90;100976.00;;;;4926173;29;20757;-75
2023/09/13 09:11:12;;;;;;;34.13;18.47;;;;;21.90;100979.00;;;;4928447;28;20715;-75
2023/09/13 09:14:00;;;;;;;32.13;17.97;;;;;21.80;100996.00;;;;4923897;29;20330;-67
2023/09/13 09:16:49;;;;;;;29.03;15.93;;;;;21.60;101022.00;;;;4928971;29;20690;-69
2023/09/13 09:19:36;;;;;;;9.97;6.13;;;;;21.10;101026.00;;;;4924585;29;20236;-74
2023/09/13 09:22:23;;;;;;;10.87;5.17;;;;;20.60;101037.00;;;;4911785;29;20232;-70
2023/09/13 09:25:11;;;;;;;6.20;3.07;;;;;20.30;101040.00;;;;4922858;28;20231;-71
2023/09/13 09:27:57;;;;;;;3.57;2.83;;;;;19.90;101059.00;;;;4917668;29;20241;-73
2023/09/13 09:30:45;;;;;;;2.67;2.20;;;;;19.60;101056.00;;;;4920349;29;20231;-68
2023/09/13 09:33:33;;;;;;;3.03;2.20;;;;;19.40;101065.00;;;;4920600;29;20243;-67
2023/09/13 09:36:26;;;;;;;6.10;2.07;;;;;19.20;101055.00;;;;4928350;29;20280;-68
2023/09/13 09:39:13;;;;;;;6.67;2.03;;;;;19.10;101062.00;;;;4922467;29;20281;-67
2023/09/13 09:41:59;;;;;;;5.00;2.00;;;;;19.10;101063.00;;;;4926826;29;20721;-68
2023/09/13 09:44:46;;;;;;;4.03;1.87;;;;;19.20;101065.00;;;;4927067;29;20345;-67
2023/09/13 09:47:37;;;;;;;2.47;1.83;;;;;19.20;101061.00;;;;4926191;29;20631;-68
2023/09/13 09:50:23;;;;;;;3.13;1.90;;;;;19.20;101061.00;;;;4923105;29;20237;-66
2023/09/13 09:53:13;;;;;;;2.37;1.63;;;;;19.60;101057.00;;;;4925814;29;20596;-67
2023/09/13 09:56:00;;;;;;;3.37;1.90;;;;;20.00;101062.00;;;;4927917;28;20353;-68
2023/09/13 09:58:49;;;;;;;1.80;1.70;;;;;20.00;101074.00;;;;4926748;29;20236;-71
2023/09/13 10:01:38;;;;;;;1.90;1.70;;;;;20.00;101085.00;;;;4913433;29;20253;-71
2023/09/13 10:04:24;;;;;;;1.90;1.70;;;;;19.90;101080.00;;;;4922721;29;20245;-72
2023/09/13 10:07:11;;;;;;;2.53;1.80;;;;;19.90;101101.00;;;;4928937;29;20236;-72
2023/09/13 10:09:59;;;;;;;1.97;1.53;;;;;20.00;101102.00;;;;4921221;28;20267;-72
2023/09/13 10:12:47;;;;;;;2.50;1.73;;;;;20.00;101104.00;;;;4928036;29;20241;-71
2023/09/13 10:15:33;;;;;;;2.40;1.30;;;;;20.10;101116.00;;;;4915820;29;20305;-72
2023/09/13 10:18:21;;;;;;;3.80;1.60;;;;;19.80;101120.00;;;;4918441;29;20253;-69
2023/09/13 10:21:10;;;;;;;7.87;1.50;;;;;19.70;101127.00;;;;4914041;29;20325;-71
2023/09/13 10:24:01;;;;;;;4.20;1.20;;;;;19.50;101129.00;;;;4925664;29;20285;-71
2023/09/13 10:26:52;;;;;;;4.50;1.43;;;;;19.50;101144.00;;;;4922592;29;20286;-68
2023/09/13 10:29:40;;;;;;;3.27;1.23;;;;;19.40;101132.00;;;;4920564;29;20246;-70
2023/09/13 10:32:32;;;;;;;2.47;1.47;;;;;19.40;101139.00;;;;4917312;29;20285;-70
2023/09/13 10:35:20;;;;;;;3.80;1.50;;;;;19.30;101142.00;;;;4912504;28;20242;-67
2023/09/13 10:38:13;;;;;;;3.23;1.80;;;;;19.60;101142.00;;;;4924333;29;20640;-70
2023/09/13 10:41:03;;;;;;;6.70;1.73;;;;;20.00;101148.00;;;;4923534;29;20282;-70
2023/09/13 10:43:52;;;;;;;3.07;2.00;;;;;20.40;101144.00;;;;4919606;29;20238;-72
2023/09/13 10:46:38;;;;;;;3.20;1.67;;;;;20.40;101148.00;;;;4921912;29;20245;-73
2023/09/13 10:49:25;;;;;;;5.87;1.93;;;;;20.40;101165.00;;;;4916337;29;20373;-68
2023/09/13 10:52:11;;;;;;;4.83;1.80;;;;;20.30;101159.00;;;;4922516;28;20238;-71
2023/09/13 10:54:59;;;;;;;3.23;1.60;;;;;20.30;101164.00;;;;4924855;28;20265;-71
2023/09/13 10:57:47;;;;;;;3.10;1.50;;;;;20.50;101162.00;;;;4918313;29;20236;-69
2023/09/13 11:00:38;;;;;;;4.53;1.50;;;;;20.60;101165.00;;;;4918752;29;20329;-71
2023/09/13 11:03:25;;;;;;;4.63;1.80;;;;;20.70;101173.00;;;;4926219;28;20865;-69
2023/09/13 11:06:12;;;;;;;3.17;1.90;;;;;20.90;101177.00;;;;4917150;29;20239;-71
2023/09/13 11:09:11;;;;;;;3.63;1.73;;;;;20.80;101180.00;;;;4920604;29;21018;-70
2023/09/13 11:11:59;;;;;;;4.30;1.90;;;;;20.70;101182.00;;;;4923232;29;20235;-70
2023/09/13 11:14:50;;;;;;;3.63;1.90;;;;;20.70;101175.00;;;;4917564;29;20239;-69
2023/09/13 11:17:40;;;;;;;4.93;1.70;;;;;20.90;101168.00;;;;4918478;29;20325;-68
2023/09/13 11:20:29;;;;;;;4.67;2.10;;;;;21.10;101178.00;;;;4915519;28;20276;-71
2023/09/13 11:23:18;;;;;;;2.43;1.70;;;;;21.30;101178.00;;;;4925148;29;20243;-72
2023/09/13 11:26:10;;;;;;;5.77;1.80;;;;;21.30;101191.00;;;;4918189;29;20241;-71
2023/09/13 11:29:21;;;;;;;2.87;1.67;;;;;21.40;101210.00;;;;4916336;29;20248;-72
2023/09/13 11:32:09;;;;;;;4.07;2.07;;;;;21.30;101220.00;;;;4918635;29;20613;-70
2023/09/13 11:34:57;;;;;;;4.13;1.87;;;;;21.20;101231.00;;;;4919326;28;20243;-72
2023/09/13 11:37:45;;;;;;;3.47;1.97;;;;;21.20;101233.00;;;;4920386;29;20245;-71
2023/09/13 11:40:32;;;;;;;5.40;1.70;;;;;21.30;101241.00;;;;4921008;29;20271;-71
2023/09/13 11:43:22;;;;;;;2.80;1.60;;;;;21.40;101241.00;;;;4921814;29;20311;-71
2023/09/13 11:46:20;;;;;;;2.63;1.70;;;;;21.40;101250.00;;;;4916552;29;20671;-72
2023/09/13 11:49:07;;;;;;;4.93;2.07;;;;;21.40;101257.00;;;;4924417;29;20252;-72
2023/09/13 11:52:14;;;;;;;3.60;1.90;;;;;21.30;101261.00;;;;4916141;29;20295;-71
2023/09/13 11:55:26;;;;;;;3.77;1.67;;;;;21.30;101266.00;;;;4922428;28;20608;-71
2023/09/13 11:58:34;;;;;;;3.30;1.70;;;;;21.00;101272.00;;;;4921097;28;20626;-69
2023/09/13 12:01:32;;;;;;;4.27;1.50;;;;;20.90;101278.00;;;;4922014;28;20257;-71
2023/09/13 12:04:24;;;;;;;4.50;1.80;;;;;20.90;101278.00;;;;4925345;29;20236;-72
2023/09/13 12:07:32;;;;;;;2.73;1.53;;;;;21.10;101287.00;;;;4921977;29;20315;-71
2023/09/13 12:10:30;;;;;;;3.90;1.67;;;;;21.00;101289.00;;;;4919967;29;20247;-71
2023/09/13 12:13:19;;;;;;;4.73;2.20;;;;;21.20;101298.00;;;;4913872;29;20260;-71
2023/09/13 12:16:22;;;;;;;8.07;1.93;;;;;21.10;101297.00;;;;4917768;29;20241;-72
2023/09/13 12:19:12;;;;;;;5.33;1.60;;;;;21.20;101303.00;;;;4921072;29;20241;-72
2023/09/13 12:21:58;;;;;;;2.87;1.77;;;;;21.50;101288.00;;;;4923173;29;20635;-70
2023/09/13 12:24:53;;;;;;;3.53;1.60;;;;;21.60;101301.00;;;;4916948;29;20235;-70
2023/09/13 12:27:39;;;;;;;2.90;1.60;;;;;21.90;101306.00;;;;4915791;29;20228;-71
2023/09/13 12:30:26;;;;;;;2.87;1.27;;;;;22.20;101307.00;;;;4916373;29;20292;-67
2023/09/13 12:33:13;;;;;;;4.53;1.37;;;;;22.30;101313.00;;;;4918406;29;20236;-70
2023/09/13 12:35:59;;;;;;;3.37;1.43;;;;;21.90;101313.00;;;;4921364;28;20232;-72
2023/09/13 12:38:48;;;;;;;2.07;1.33;;;;;21.50;101316.00;;;;4920651;28;20272;-71
2023/09/13 12:41:36;;;;;;;1.27;1.17;;;;;21.20;101327.00;;;;4923704;29;20296;-71
2023/09/13 12:44:22;;;;;;;2.20;1.43;;;;;21.00;101324.00;;;;4919625;28;20239;-73
2023/09/13 12:47:09;;;;;;;3.67;1.43;;;;;20.90;101336.00;;;;4929334;29;20293;-72
2023/09/13 12:49:58;;;;;;;3.93;1.33;;;;;20.80;101339.00;;;;4930506;28;20267;-71
2023/09/13 12:52:45;;;;;;;3.67;1.40;;;;;20.90;101330.00;;;;4923209;29;20680;-71
2023/09/13 12:55:31;;;;;;;1.90;1.23;;;;;20.70;101337.00;;;;4920104;29;20229;-71
2023/09/13 12:58:19;;;;;;;1.87;1.40;;;;;20.70;101338.00;;;;4925127;29;20231;-70
2023/09/13 13:01:05;;;;;;;2.30;1.30;;;;;20.60;101345.00;;;;4919075;28;20277;-72
2023/09/13 13:03:57;;;;;;;2.20;1.20;;;;;20.50;101341.00;;;;4924827;29;20611;-69
2023/09/13 13:06:57;;;;;;;1.43;1.20;;;;;20.50;101355.00;;;;4926734;29;20241;-69
2023/09/13 13:09:43;;;;;;;1.83;1.20;;;;;20.40;101355.00;;;;4925323;28;20314;-69
2023/09/13 13:12:30;;;;;;;4.30;1.30;;;;;20.20;101352.00;;;;4921797;29;20241;-68
2023/09/13 13:15:19;;;;;;;2.30;1.30;;;;;20.20;101358.00;;;;4921269;29;20565;-70
2023/09/13 13:18:10;;;;;;;1.80;1.13;;;;;20.20;101364.00;;;;4927630;29;20799;-69
2023/09/13 13:20:57;;;;;;;2.03;1.10;;;;;20.20;101376.00;;;;4918128;29;20238;-65
2023/09/13 13:23:53;;;;;;;2.13;1.40;;;;;20.10;101385.00;;;;4928376;28;20715;-68
2023/09/13 13:26:39;;;;;;;3.07;1.50;;;;;20.10;101383.00;;;;4927294;29;20240;-69
2023/09/13 13:29:26;;;;;;;2.07;1.57;;;;;20.10;101393.00;;;;4925392;28;20243;-68
2023/09/13 13:32:13;;;;;;;4.33;1.80;;;;;20.00;101398.00;;;;4929005;29;20238;-66
2023/09/13 13:35:03;;;;;;;3.43;2.00;;;;;19.90;101388.00;;;;4925506;29;20374;-66
2023/09/13 13:37:50;;;;;;;2.97;1.83;;;;;20.00;101409.00;;;;4920687;29;20256;-68
2023/09/13 13:40:36;;;;;;;4.03;2.30;;;;;19.90;101399.00;;;;4925780;28;20225;-70